WAT3630 SCEL-SGAS
Flight info
| Callsign | WAT3630 |
|---|---|
| Flight time | 1h 59m |
| Altitude | 35000 |
| Route | GUVOL6B GUVOL UN527 JUA UM529 ARPAS |
| Aircraft | A21N/M-SDE3FGHIRWY/LB1 |
Departure
| Time | 2026-04-21 23:51 |
|---|---|
| Airport | Comodoro Arturo Merino Benítez International Airport (SCEL) |
Arrival
| Time | 2026-04-22 01:50 |
|---|---|
| Airport | Silvio Pettirossi International Airport (SGAS) |
| Time | Latitude | Longitude | Altitude | Speed | Heading |
|---|---|---|---|---|---|
| 2026-04-21 23:22 | -33.39749 | -70.79687 | 1567 ft | 0 kts | 52° |
| 2026-04-21 23:38 | -33.39754 | -70.79694 | 1566 ft | 1 kts | 51° |
| 2026-04-21 23:38 | -33.39761 | -70.79703 | 1566 ft | 2 kts | 47° |
| 2026-04-21 23:38 | -33.39772 | -70.79716 | 1566 ft | 2 kts | 37° |
| 2026-04-21 23:39 | -33.39784 | -70.79725 | 1566 ft | 2 kts | 27° |
| 2026-04-21 23:39 | -33.39798 | -70.79733 | 1566 ft | 2 kts | 19° |
| 2026-04-21 23:39 | -33.39813 | -70.79737 | 1566 ft | 2 kts | 9° |
| 2026-04-21 23:39 | -33.39827 | -70.79739 | 1566 ft | 2 kts | 0° |
| 2026-04-21 23:40 | -33.39836 | -70.79739 | 1566 ft | 1 kts | 355° |
| 2026-04-21 23:40 | -33.39840 | -70.79738 | 1566 ft | 0 kts | 354° |
| 2026-04-21 23:41 | -33.39838 | -70.79739 | 1566 ft | 0 kts | 344° |
| 2026-04-21 23:41 | -33.39833 | -70.79742 | 1566 ft | 1 kts | 320° |
| 2026-04-21 23:42 | -33.39827 | -70.79765 | 1566 ft | 3 kts | 269° |
| 2026-04-21 23:42 | -33.39829 | -70.79813 | 1566 ft | 9 kts | 268° |
| 2026-04-21 23:42 | -33.39833 | -70.79907 | 1566 ft | 11 kts | 266° |
| 2026-04-21 23:42 | -33.39813 | -70.79996 | 1566 ft | 11 kts | 317° |
| 2026-04-21 23:43 | -33.39740 | -70.80034 | 1566 ft | 11 kts | 353° |
| 2026-04-21 23:43 | -33.39657 | -70.80044 | 1566 ft | 12 kts | 356° |
| 2026-04-21 23:43 | -33.39572 | -70.80051 | 1566 ft | 12 kts | 356° |
| 2026-04-21 23:43 | -33.39482 | -70.80057 | 1566 ft | 12 kts | 359° |
| 2026-04-21 23:44 | -33.39391 | -70.80059 | 1566 ft | 13 kts | 359° |
| 2026-04-21 23:44 | -33.39296 | -70.80061 | 1566 ft | 13 kts | 360° |
| 2026-04-21 23:44 | -33.39200 | -70.80062 | 1566 ft | 13 kts | 359° |
| 2026-04-21 23:44 | -33.39102 | -70.80067 | 1566 ft | 14 kts | 356° |
| 2026-04-21 23:45 | -33.39003 | -70.80074 | 1566 ft | 14 kts | 358° |
| 2026-04-21 23:45 | -33.38801 | -70.80084 | 1566 ft | 14 kts | 358° |
| 2026-04-21 23:45 | -33.38698 | -70.80089 | 1566 ft | 14 kts | 358° |
| 2026-04-21 23:46 | -33.38593 | -70.80094 | 1566 ft | 14 kts | 358° |
| 2026-04-21 23:46 | -33.38490 | -70.80100 | 1566 ft | 15 kts | 357° |
| 2026-04-21 23:46 | -33.38385 | -70.80106 | 1566 ft | 15 kts | 357° |
| 2026-04-21 23:46 | -33.38278 | -70.80111 | 1567 ft | 15 kts | 357° |
| 2026-04-21 23:47 | -33.38171 | -70.80117 | 1567 ft | 15 kts | 357° |
| 2026-04-21 23:47 | -33.38065 | -70.80124 | 1567 ft | 15 kts | 357° |
| 2026-04-21 23:47 | -33.37957 | -70.80130 | 1567 ft | 15 kts | 357° |
| 2026-04-21 23:47 | -33.37849 | -70.80137 | 1567 ft | 15 kts | 357° |
| 2026-04-21 23:48 | -33.37742 | -70.80144 | 1567 ft | 15 kts | 357° |
| 2026-04-21 23:48 | -33.37633 | -70.80151 | 1567 ft | 15 kts | 357° |
| 2026-04-21 23:48 | -33.37526 | -70.80157 | 1567 ft | 15 kts | 357° |
| 2026-04-21 23:48 | -33.37416 | -70.80160 | 1567 ft | 15 kts | 359° |
| 2026-04-21 23:49 | -33.37309 | -70.80163 | 1567 ft | 15 kts | 359° |
| 2026-04-21 23:49 | -33.37200 | -70.80166 | 1567 ft | 15 kts | 354° |
| 2026-04-21 23:49 | -33.37112 | -70.80229 | 1567 ft | 15 kts | 293° |
| 2026-04-21 23:49 | -33.37132 | -70.80341 | 1567 ft | 14 kts | 220° |
| 2026-04-21 23:50 | -33.37226 | -70.80368 | 1567 ft | 16 kts | 180° |
| 2026-04-21 23:50 | -33.37585 | -70.80351 | 1567 ft | 87 kts | 178° |
| 2026-04-21 23:50 | -33.38411 | -70.80308 | 1567 ft | 147 kts | 177° |
| 2026-04-21 23:50 | -33.39583 | -70.80243 | 1821 ft | 175 kts | 178° |
| 2026-04-21 23:51 | -33.40795 | -70.80177 | 2409 ft | 179 kts | 178° |
| 2026-04-21 23:51 | -33.42065 | -70.80110 | 3022 ft | 186 kts | 179° |
| 2026-04-21 23:51 | -33.43369 | -70.80057 | 3564 ft | 190 kts | 179° |
| 2026-04-21 23:51 | -33.44734 | -70.79984 | 4042 ft | 201 kts | 181° |
| 2026-04-21 23:52 | -33.46059 | -70.80557 | 4380 ft | 215 kts | 224° |
| 2026-04-21 23:52 | -33.46775 | -70.82169 | 4721 ft | 231 kts | 261° |
| 2026-04-21 23:52 | -33.46723 | -70.84161 | 5023 ft | 252 kts | 277° |
| 2026-04-21 23:52 | -33.46644 | -70.86309 | 5582 ft | 265 kts | 271° |
| 2026-04-21 23:53 | -33.46651 | -70.88540 | 6228 ft | 274 kts | 272° |
| 2026-04-21 23:53 | -33.46613 | -70.90834 | 6927 ft | 281 kts | 274° |
| 2026-04-21 23:53 | -33.46526 | -70.93168 | 7677 ft | 285 kts | 276° |
| 2026-04-21 23:53 | -33.46223 | -70.95483 | 8550 ft | 280 kts | 295° |
| 2026-04-21 23:54 | -33.45077 | -70.97257 | 9448 ft | 270 kts | 327° |
| 2026-04-21 23:54 | -33.43378 | -70.98098 | 10300 ft | 267 kts | 349° |
| 2026-04-21 23:54 | -33.41501 | -70.98107 | 10811 ft | 281 kts | 2° |
| 2026-04-21 23:54 | -33.39490 | -70.97897 | 11189 ft | 298 kts | 2° |
| 2026-04-21 23:55 | -33.37381 | -70.97684 | 11510 ft | 315 kts | 2° |
| 2026-04-21 23:55 | -33.35123 | -70.97465 | 11806 ft | 332 kts | 2° |
| 2026-04-21 23:55 | -33.32749 | -70.97240 | 12128 ft | 348 kts | 2° |
| 2026-04-21 23:55 | -33.30333 | -70.97009 | 12710 ft | 354 kts | 2° |
| 2026-04-21 23:56 | -33.27842 | -70.96774 | 13426 ft | 357 kts | 2° |
| 2026-04-21 23:56 | -33.25382 | -70.96542 | 14101 ft | 359 kts | 1° |
| 2026-04-21 23:56 | -33.22869 | -70.96148 | 14732 ft | 366 kts | 9° |
| 2026-04-21 23:56 | -33.20451 | -70.95183 | 15302 ft | 375 kts | 19° |
| 2026-04-21 23:57 | -33.18153 | -70.93624 | 15829 ft | 385 kts | 30° |
| 2026-04-21 23:57 | -33.15928 | -70.91753 | 16384 ft | 391 kts | 31° |
| 2026-04-21 23:57 | -33.13717 | -70.89838 | 16941 ft | 395 kts | 31° |
| 2026-04-21 23:57 | -33.11483 | -70.87907 | 17459 ft | 400 kts | 31° |
| 2026-04-21 23:58 | -33.09246 | -70.85983 | 17992 ft | 403 kts | 30° |
| 2026-04-21 23:58 | -33.06943 | -70.84016 | 18494 ft | 407 kts | 30° |
| 2026-04-21 23:58 | -33.04648 | -70.82058 | 18991 ft | 411 kts | 30° |
| 2026-04-21 23:58 | -33.02334 | -70.80027 | 19491 ft | 415 kts | 31° |
| 2026-04-21 23:59 | -33.00004 | -70.77948 | 19981 ft | 418 kts | 31° |
| 2026-04-21 23:59 | -32.97673 | -70.75870 | 20452 ft | 423 kts | 31° |
| 2026-04-21 23:59 | -32.95322 | -70.73779 | 20856 ft | 428 kts | 31° |
| 2026-04-21 23:59 | -32.92865 | -70.71742 | 21252 ft | 427 kts | 24° |
| 2026-04-22 00:00 | -32.90205 | -70.70309 | 21691 ft | 420 kts | 12° |
| 2026-04-22 00:00 | -32.87378 | -70.69540 | 22202 ft | 413 kts | 1° |
| 2026-04-22 00:00 | -32.84512 | -70.69279 | 22681 ft | 412 kts | 356° |
| 2026-04-22 00:00 | -32.81654 | -70.69104 | 23072 ft | 416 kts | 356° |
| 2026-04-22 00:01 | -32.78754 | -70.68937 | 23540 ft | 417 kts | 356° |
| 2026-04-22 00:01 | -32.75827 | -70.68760 | 23973 ft | 421 kts | 356° |
| 2026-04-22 00:01 | -32.72886 | -70.68575 | 24294 ft | 426 kts | 356° |
| 2026-04-22 00:01 | -32.69941 | -70.68383 | 24690 ft | 429 kts | 356° |
| 2026-04-22 00:02 | -32.66933 | -70.68181 | 25116 ft | 430 kts | 356° |
| 2026-04-22 00:02 | -32.63941 | -70.67676 | 25408 ft | 447 kts | 8° |
| 2026-04-22 00:02 | -32.61061 | -70.66100 | 25720 ft | 468 kts | 26° |
| 2026-04-22 00:02 | -32.58589 | -70.63483 | 26057 ft | 487 kts | 44° |
| 2026-04-22 00:03 | -32.56710 | -70.60114 | 26527 ft | 494 kts | 53° |
| 2026-04-22 00:03 | -32.54965 | -70.56619 | 26988 ft | 494 kts | 53° |
| 2026-04-22 00:03 | -32.53223 | -70.53117 | 27434 ft | 493 kts | 53° |
| 2026-04-22 00:03 | -32.51487 | -70.49668 | 27787 ft | 494 kts | 53° |
| 2026-04-22 00:04 | -32.49714 | -70.46185 | 28157 ft | 495 kts | 53° |
| 2026-04-22 00:04 | -32.47918 | -70.42677 | 28575 ft | 495 kts | 52° |
| 2026-04-22 00:04 | -32.46131 | -70.39204 | 29005 ft | 494 kts | 52° |
| 2026-04-22 00:04 | -32.44361 | -70.35770 | 29416 ft | 493 kts | 52° |
| 2026-04-22 00:05 | -32.42563 | -70.32288 | 29784 ft | 493 kts | 51° |
| 2026-04-22 00:05 | -32.40781 | -70.28842 | 30099 ft | 493 kts | 51° |
| 2026-04-22 00:05 | -32.39000 | -70.25402 | 30361 ft | 494 kts | 51° |
| 2026-04-22 00:05 | -32.37249 | -70.21900 | 30591 ft | 498 kts | 53° |
| 2026-04-22 00:06 | -32.35607 | -70.18254 | 30857 ft | 501 kts | 55° |
| 2026-04-22 00:06 | -32.34020 | -70.14641 | 31090 ft | 502 kts | 55° |
| 2026-04-22 00:06 | -32.32423 | -70.10988 | 31314 ft | 503 kts | 54° |
| 2026-04-22 00:06 | -32.30819 | -70.07325 | 31560 ft | 503 kts | 55° |
| 2026-04-22 00:07 | -32.29203 | -70.03645 | 31775 ft | 504 kts | 54° |
| 2026-04-22 00:07 | -32.27587 | -69.99976 | 31981 ft | 506 kts | 54° |
| 2026-04-22 00:07 | -32.25969 | -69.96303 | 32212 ft | 506 kts | 54° |
| 2026-04-22 00:07 | -32.24329 | -69.92595 | 32473 ft | 506 kts | 53° |
| 2026-04-22 00:08 | -32.22716 | -69.88946 | 32697 ft | 505 kts | 53° |
| 2026-04-22 00:08 | -32.21086 | -69.85265 | 32922 ft | 505 kts | 53° |
| 2026-04-22 00:08 | -32.19467 | -69.81609 | 33103 ft | 506 kts | 53° |
| 2026-04-22 00:08 | -32.17828 | -69.77927 | 33290 ft | 508 kts | 53° |
| 2026-04-22 00:09 | -32.16199 | -69.74268 | 33513 ft | 508 kts | 53° |
| 2026-04-22 00:09 | -32.14563 | -69.70589 | 33841 ft | 507 kts | 53° |
| 2026-04-22 00:09 | -32.12912 | -69.66882 | 34023 ft | 509 kts | 53° |
| 2026-04-22 00:09 | -32.11278 | -69.63220 | 34237 ft | 509 kts | 52° |
| 2026-04-22 00:10 | -32.09631 | -69.59528 | 34480 ft | 509 kts | 53° |
| 2026-04-22 00:10 | -32.07980 | -69.55831 | 34708 ft | 509 kts | 52° |
| 2026-04-22 00:10 | -32.06348 | -69.52180 | 34917 ft | 509 kts | 52° |
| 2026-04-22 00:10 | -32.04688 | -69.48477 | 35065 ft | 511 kts | 53° |
| 2026-04-22 00:11 | -32.03038 | -69.44797 | 35186 ft | 513 kts | 53° |
| 2026-04-22 00:11 | -32.01369 | -69.41077 | 35427 ft | 512 kts | 53° |
| 2026-04-22 00:11 | -31.99714 | -69.37393 | 35471 ft | 513 kts | 53° |
| 2026-04-22 00:12 | -31.96380 | -69.29969 | 35469 ft | 513 kts | 52° |
| 2026-04-22 00:12 | -31.93026 | -69.22527 | 35481 ft | 514 kts | 52° |
| 2026-04-22 00:13 | -31.89698 | -69.15145 | 35460 ft | 512 kts | 52° |
| 2026-04-22 00:13 | -31.86353 | -69.07754 | 35433 ft | 511 kts | 52° |
| 2026-04-22 00:14 | -31.83037 | -69.00442 | 35409 ft | 511 kts | 52° |
| 2026-04-22 00:14 | -31.79698 | -68.93088 | 35351 ft | 509 kts | 52° |
| 2026-04-22 00:15 | -31.76353 | -68.85741 | 35286 ft | 512 kts | 52° |
| 2026-04-22 00:15 | -31.73011 | -68.78412 | 35238 ft | 512 kts | 52° |
| 2026-04-22 00:16 | -31.69642 | -68.71028 | 35195 ft | 512 kts | 52° |
| 2026-04-22 00:16 | -31.66282 | -68.63687 | 35167 ft | 512 kts | 52° |
| 2026-04-22 00:17 | -31.62920 | -68.56358 | 35138 ft | 512 kts | 52° |
| 2026-04-22 00:17 | -31.59542 | -68.49010 | 35102 ft | 514 kts | 53° |
| 2026-04-22 00:18 | -31.56171 | -68.41682 | 35097 ft | 512 kts | 52° |
| 2026-04-22 00:18 | -31.52700 | -68.34462 | 35101 ft | 510 kts | 50° |
| 2026-04-22 00:19 | -31.49187 | -68.27279 | 35111 ft | 511 kts | 51° |
| 2026-04-22 00:19 | -31.45655 | -68.20031 | 35117 ft | 510 kts | 50° |
| 2026-04-22 00:20 | -31.42161 | -68.12856 | 35127 ft | 509 kts | 50° |
| 2026-04-22 00:20 | -31.38664 | -68.05697 | 35144 ft | 510 kts | 51° |
| 2026-04-22 00:21 | -31.35150 | -67.98507 | 35160 ft | 511 kts | 50° |
| 2026-04-22 00:21 | -31.31609 | -67.91282 | 35145 ft | 512 kts | 51° |
| 2026-04-22 00:22 | -31.28082 | -67.84084 | 35124 ft | 511 kts | 50° |
| 2026-04-22 00:22 | -31.24548 | -67.76891 | 35103 ft | 510 kts | 50° |
| 2026-04-22 00:23 | -31.21035 | -67.69757 | 35096 ft | 509 kts | 50° |
| 2026-04-22 00:23 | -31.17493 | -67.62589 | 35100 ft | 512 kts | 51° |
| 2026-04-22 00:24 | -31.13948 | -67.55404 | 35116 ft | 511 kts | 51° |
| 2026-04-22 00:24 | -31.10394 | -67.48215 | 35140 ft | 510 kts | 51° |
| 2026-04-22 00:25 | -31.06856 | -67.41084 | 35137 ft | 510 kts | 51° |
| 2026-04-22 00:25 | -31.03321 | -67.33974 | 35120 ft | 510 kts | 50° |
| 2026-04-22 00:26 | -30.99771 | -67.26838 | 35103 ft | 509 kts | 50° |
| 2026-04-22 00:26 | -30.96209 | -67.19706 | 35081 ft | 512 kts | 50° |
| 2026-04-22 00:27 | -30.92645 | -67.12575 | 35082 ft | 512 kts | 50° |
| 2026-04-22 00:27 | -30.89060 | -67.05416 | 35080 ft | 511 kts | 50° |
| 2026-04-22 00:28 | -30.85483 | -66.98284 | 35069 ft | 511 kts | 50° |
| 2026-04-22 00:28 | -30.81864 | -66.91092 | 35073 ft | 513 kts | 50° |
| 2026-04-22 00:29 | -30.78282 | -66.83974 | 35075 ft | 511 kts | 50° |
| 2026-04-22 00:29 | -30.74716 | -66.76913 | 35076 ft | 510 kts | 50° |
| 2026-04-22 00:30 | -30.71106 | -66.69784 | 35075 ft | 513 kts | 50° |
| 2026-04-22 00:30 | -30.67503 | -66.62663 | 35077 ft | 512 kts | 50° |
| 2026-04-22 00:31 | -30.63888 | -66.55540 | 35083 ft | 514 kts | 50° |
| 2026-04-22 00:31 | -30.60280 | -66.48441 | 35086 ft | 513 kts | 50° |
| 2026-04-22 00:32 | -30.56654 | -66.41322 | 35084 ft | 513 kts | 50° |
| 2026-04-22 00:32 | -30.53021 | -66.34202 | 35077 ft | 512 kts | 49° |
| 2026-04-22 00:33 | -30.49406 | -66.27124 | 35075 ft | 512 kts | 49° |
| 2026-04-22 00:33 | -30.45769 | -66.20026 | 35072 ft | 513 kts | 49° |
| 2026-04-22 00:34 | -30.42140 | -66.12951 | 35071 ft | 512 kts | 49° |
| 2026-04-22 00:34 | -30.38492 | -66.05860 | 35071 ft | 514 kts | 49° |
| 2026-04-22 00:35 | -30.34856 | -65.98795 | 35069 ft | 513 kts | 49° |
| 2026-04-22 00:35 | -30.31215 | -65.91737 | 35067 ft | 513 kts | 49° |
| 2026-04-22 00:36 | -30.27574 | -65.84681 | 35065 ft | 512 kts | 49° |
| 2026-04-22 00:36 | -30.23915 | -65.77620 | 35061 ft | 511 kts | 49° |
| 2026-04-22 00:37 | -30.20251 | -65.70561 | 35062 ft | 514 kts | 50° |
| 2026-04-22 00:37 | -30.16600 | -65.63525 | 35063 ft | 513 kts | 49° |
| 2026-04-22 00:38 | -30.12917 | -65.56448 | 35061 ft | 513 kts | 50° |
| 2026-04-22 00:38 | -30.09249 | -65.49416 | 35059 ft | 513 kts | 49° |
| 2026-04-22 00:39 | -30.05562 | -65.42362 | 35059 ft | 515 kts | 50° |
| 2026-04-22 00:39 | -30.01887 | -65.35334 | 35059 ft | 515 kts | 50° |
| 2026-04-22 00:40 | -29.98198 | -65.28288 | 35057 ft | 512 kts | 49° |
| 2026-04-22 00:40 | -29.94498 | -65.21245 | 35058 ft | 511 kts | 49° |
| 2026-04-22 00:41 | -29.90813 | -65.14246 | 35058 ft | 513 kts | 49° |
| 2026-04-22 00:41 | -29.87130 | -65.07259 | 35057 ft | 514 kts | 49° |
| 2026-04-22 00:42 | -29.83421 | -65.00221 | 35063 ft | 514 kts | 49° |
| 2026-04-22 00:42 | -29.79720 | -64.93214 | 35073 ft | 514 kts | 49° |
| 2026-04-22 00:43 | -29.76025 | -64.86228 | 35078 ft | 514 kts | 49° |
| 2026-04-22 00:43 | -29.72303 | -64.79201 | 35079 ft | 513 kts | 49° |
| 2026-04-22 00:44 | -29.68601 | -64.72227 | 35079 ft | 512 kts | 49° |
| 2026-04-22 00:44 | -29.64879 | -64.65227 | 35080 ft | 513 kts | 49° |
| 2026-04-22 00:45 | -29.61162 | -64.58254 | 35080 ft | 513 kts | 49° |
| 2026-04-22 00:45 | -29.57459 | -64.51337 | 35078 ft | 512 kts | 49° |
| 2026-04-22 00:46 | -29.53698 | -64.44365 | 35078 ft | 513 kts | 49° |
| 2026-04-22 00:46 | -29.49958 | -64.37439 | 35078 ft | 511 kts | 49° |
| 2026-04-22 00:47 | -29.46239 | -64.30563 | 35075 ft | 510 kts | 48° |
| 2026-04-22 00:47 | -29.42488 | -64.23626 | 35077 ft | 509 kts | 49° |
| 2026-04-22 00:48 | -29.38778 | -64.16719 | 35078 ft | 510 kts | 49° |
| 2026-04-22 00:48 | -29.35076 | -64.09835 | 35079 ft | 511 kts | 49° |
| 2026-04-22 00:49 | -29.31365 | -64.02945 | 35078 ft | 510 kts | 49° |
| 2026-04-22 00:49 | -29.27639 | -63.96051 | 35080 ft | 510 kts | 49° |
| 2026-04-22 00:50 | -29.23904 | -63.89144 | 35079 ft | 510 kts | 49° |
| 2026-04-22 00:50 | -29.20168 | -63.82254 | 35077 ft | 512 kts | 49° |
| 2026-04-22 00:51 | -29.16417 | -63.75341 | 35077 ft | 511 kts | 49° |
| 2026-04-22 00:51 | -29.12679 | -63.68462 | 35076 ft | 510 kts | 49° |
| 2026-04-22 00:52 | -29.08937 | -63.61595 | 35075 ft | 510 kts | 49° |
| 2026-04-22 00:52 | -29.05194 | -63.54738 | 35073 ft | 511 kts | 49° |
| 2026-04-22 00:53 | -29.01447 | -63.47873 | 35071 ft | 511 kts | 49° |
| 2026-04-22 00:53 | -28.97689 | -63.41001 | 35072 ft | 509 kts | 49° |
| 2026-04-22 00:54 | -28.93917 | -63.34124 | 35069 ft | 510 kts | 49° |
| 2026-04-22 00:54 | -28.90167 | -63.27291 | 35070 ft | 509 kts | 49° |
| 2026-04-22 00:55 | -28.86403 | -63.20468 | 35071 ft | 509 kts | 49° |
| 2026-04-22 00:55 | -28.80746 | -63.10242 | 35072 ft | 510 kts | 49° |
| 2026-04-22 00:56 | -28.76954 | -63.03398 | 35071 ft | 510 kts | 49° |
| 2026-04-22 00:56 | -28.73165 | -62.96572 | 35069 ft | 510 kts | 49° |
| 2026-04-22 00:57 | -28.69381 | -62.89765 | 35070 ft | 510 kts | 49° |
| 2026-04-22 00:57 | -28.65610 | -62.82988 | 35069 ft | 509 kts | 49° |
| 2026-04-22 00:58 | -28.61807 | -62.76172 | 35070 ft | 509 kts | 49° |
| 2026-04-22 00:58 | -28.57999 | -62.69360 | 35070 ft | 510 kts | 49° |
| 2026-04-22 00:59 | -28.54224 | -62.62613 | 35070 ft | 510 kts | 49° |
| 2026-04-22 00:59 | -28.50398 | -62.55791 | 35071 ft | 510 kts | 49° |
| 2026-04-22 01:00 | -28.46582 | -62.48996 | 35070 ft | 510 kts | 49° |
| 2026-04-22 01:00 | -28.42783 | -62.42245 | 35070 ft | 510 kts | 50° |
| 2026-04-22 01:01 | -28.38973 | -62.35482 | 35074 ft | 510 kts | 50° |
| 2026-04-22 01:01 | -28.35164 | -62.28727 | 35071 ft | 509 kts | 49° |
| 2026-04-22 01:02 | -28.31335 | -62.21957 | 35072 ft | 509 kts | 49° |
| 2026-04-22 01:02 | -28.27503 | -62.15187 | 35074 ft | 508 kts | 49° |
| 2026-04-22 01:03 | -28.23686 | -62.08460 | 35074 ft | 509 kts | 49° |
| 2026-04-22 01:03 | -28.19867 | -62.01736 | 35071 ft | 509 kts | 49° |
| 2026-04-22 01:04 | -28.16017 | -61.94966 | 35073 ft | 508 kts | 49° |
| 2026-04-22 01:04 | -28.12189 | -61.88245 | 35069 ft | 508 kts | 49° |
| 2026-04-22 01:05 | -28.08373 | -61.81551 | 35070 ft | 508 kts | 50° |
| 2026-04-22 01:05 | -28.04529 | -61.74819 | 35064 ft | 508 kts | 49° |
| 2026-04-22 01:06 | -28.00698 | -61.68126 | 35064 ft | 509 kts | 49° |
| 2026-04-22 01:06 | -27.96863 | -61.61434 | 35055 ft | 507 kts | 50° |
| 2026-04-22 01:07 | -27.93030 | -61.54750 | 35052 ft | 507 kts | 50° |
| 2026-04-22 01:07 | -27.89190 | -61.48070 | 35052 ft | 507 kts | 50° |
| 2026-04-22 01:08 | -27.85342 | -61.41390 | 35046 ft | 507 kts | 50° |
| 2026-04-22 01:08 | -27.81503 | -61.34721 | 35043 ft | 507 kts | 49° |
| 2026-04-22 01:09 | -27.77653 | -61.28050 | 35040 ft | 507 kts | 50° |
| 2026-04-22 01:09 | -27.73822 | -61.21417 | 35040 ft | 506 kts | 49° |
| 2026-04-22 01:10 | -27.70022 | -61.14854 | 35038 ft | 507 kts | 49° |
| 2026-04-22 01:10 | -27.68000 | -61.11365 | 35035 ft | 506 kts | 49° |
| 2026-04-22 01:11 | -27.66942 | -61.09540 | 35035 ft | 507 kts | 49° |
| 2026-04-22 01:11 | -27.63678 | -61.03918 | 35035 ft | 506 kts | 50° |
| 2026-04-22 01:12 | -27.59895 | -60.97410 | 35032 ft | 505 kts | 50° |
| 2026-04-22 01:12 | -27.56175 | -60.91020 | 35030 ft | 505 kts | 50° |
| 2026-04-22 01:13 | -27.52410 | -60.84562 | 35031 ft | 505 kts | 50° |
| 2026-04-22 01:13 | -27.48571 | -60.77988 | 35030 ft | 505 kts | 50° |
| 2026-04-22 01:14 | -27.44692 | -60.71359 | 35029 ft | 505 kts | 50° |
| 2026-04-22 01:14 | -27.40855 | -60.64806 | 35030 ft | 504 kts | 50° |
| 2026-04-22 01:15 | -27.36988 | -60.58221 | 35031 ft | 504 kts | 50° |
| 2026-04-22 01:15 | -27.33144 | -60.51676 | 35029 ft | 504 kts | 50° |
| 2026-04-22 01:16 | -27.29260 | -60.45078 | 35022 ft | 504 kts | 50° |
| 2026-04-22 01:16 | -27.25414 | -60.38551 | 35015 ft | 504 kts | 50° |
| 2026-04-22 01:17 | -27.21558 | -60.32020 | 35011 ft | 504 kts | 49° |
| 2026-04-22 01:17 | -27.17692 | -60.25481 | 35012 ft | 504 kts | 50° |
| 2026-04-22 01:18 | -27.13805 | -60.18915 | 35009 ft | 503 kts | 50° |
| 2026-04-22 01:18 | -27.09942 | -60.12397 | 35006 ft | 503 kts | 50° |
| 2026-04-22 01:19 | -27.06068 | -60.05873 | 35013 ft | 503 kts | 50° |
| 2026-04-22 01:19 | -27.02210 | -59.99386 | 35015 ft | 503 kts | 50° |
| 2026-04-22 01:20 | -26.98329 | -59.92870 | 35015 ft | 502 kts | 50° |
| 2026-04-22 01:20 | -26.94454 | -59.86375 | 35011 ft | 502 kts | 50° |
| 2026-04-22 01:21 | -26.90579 | -59.79886 | 35008 ft | 503 kts | 50° |
| 2026-04-22 01:21 | -26.86679 | -59.73364 | 35007 ft | 503 kts | 50° |
| 2026-04-22 01:22 | -26.82803 | -59.66893 | 35007 ft | 503 kts | 50° |
| 2026-04-22 01:22 | -26.78907 | -59.60398 | 35001 ft | 503 kts | 50° |
| 2026-04-22 01:23 | -26.75026 | -59.53941 | 34999 ft | 503 kts | 50° |
| 2026-04-22 01:23 | -26.71119 | -59.47440 | 34997 ft | 502 kts | 50° |
| 2026-04-22 01:24 | -26.67240 | -59.40997 | 34995 ft | 502 kts | 50° |
| 2026-04-22 01:24 | -26.63346 | -59.34539 | 34992 ft | 502 kts | 50° |
| 2026-04-22 01:25 | -26.59437 | -59.28066 | 34990 ft | 501 kts | 50° |
| 2026-04-22 01:25 | -26.55547 | -59.21635 | 34989 ft | 502 kts | 50° |
| 2026-04-22 01:26 | -26.51630 | -59.15168 | 34985 ft | 502 kts | 50° |
| 2026-04-22 01:26 | -26.47738 | -59.08751 | 34984 ft | 502 kts | 50° |
| 2026-04-22 01:27 | -26.43808 | -59.02280 | 34983 ft | 501 kts | 50° |
| 2026-04-22 01:27 | -26.39922 | -58.95894 | 34979 ft | 501 kts | 50° |
| 2026-04-22 01:28 | -26.35998 | -58.89453 | 34979 ft | 501 kts | 50° |
| 2026-04-22 01:28 | -26.32087 | -58.83042 | 34975 ft | 500 kts | 50° |
| 2026-04-22 01:29 | -26.28173 | -58.76637 | 34977 ft | 501 kts | 50° |
| 2026-04-22 01:29 | -26.24273 | -58.70260 | 34352 ft | 500 kts | 50° |
| 2026-04-22 01:30 | -26.22334 | -58.67094 | 33366 ft | 506 kts | 50° |
| 2026-04-22 01:30 | -26.20338 | -58.63844 | 32253 ft | 513 kts | 50° |
| 2026-04-22 01:30 | -26.18311 | -58.60548 | 31217 ft | 518 kts | 51° |
| 2026-04-22 01:30 | -26.16287 | -58.57252 | 30276 ft | 520 kts | 51° |
| 2026-04-22 01:31 | -26.14249 | -58.53938 | 29335 ft | 522 kts | 51° |
| 2026-04-22 01:31 | -26.12192 | -58.50588 | 28408 ft | 523 kts | 51° |
| 2026-04-22 01:31 | -26.10138 | -58.47249 | 27568 ft | 524 kts | 52° |
| 2026-04-22 01:31 | -26.08117 | -58.43966 | 26978 ft | 518 kts | 52° |
| 2026-04-22 01:32 | -26.06087 | -58.40662 | 26478 ft | 511 kts | 52° |
| 2026-04-22 01:32 | -26.04115 | -58.37457 | 25960 ft | 505 kts | 52° |
| 2026-04-22 01:32 | -26.02125 | -58.34227 | 25400 ft | 499 kts | 52° |
| 2026-04-22 01:32 | -26.00187 | -58.31089 | 24832 ft | 494 kts | 52° |
| 2026-04-22 01:33 | -25.98245 | -58.27944 | 24267 ft | 489 kts | 53° |
| 2026-04-22 01:33 | -25.96339 | -58.24862 | 23717 ft | 484 kts | 53° |
| 2026-04-22 01:33 | -25.94436 | -58.21785 | 23182 ft | 479 kts | 53° |
| 2026-04-22 01:33 | -25.92574 | -58.18779 | 22647 ft | 475 kts | 53° |
| 2026-04-22 01:34 | -25.90718 | -58.15782 | 22092 ft | 470 kts | 53° |
| 2026-04-22 01:34 | -25.88870 | -58.12797 | 21577 ft | 464 kts | 53° |
| 2026-04-22 01:34 | -25.87048 | -58.09854 | 21067 ft | 459 kts | 53° |
| 2026-04-22 01:34 | -25.85252 | -58.06957 | 20550 ft | 453 kts | 53° |
| 2026-04-22 01:35 | -25.83475 | -58.04094 | 20033 ft | 448 kts | 53° |
| 2026-04-22 01:35 | -25.81731 | -58.01288 | 19528 ft | 443 kts | 53° |
| 2026-04-22 01:35 | -25.79984 | -57.98477 | 19011 ft | 438 kts | 53° |
| 2026-04-22 01:35 | -25.78288 | -57.95752 | 18494 ft | 433 kts | 53° |
| 2026-04-22 01:36 | -25.76574 | -57.93000 | 17973 ft | 428 kts | 53° |
| 2026-04-22 01:36 | -25.74908 | -57.90326 | 17588 ft | 419 kts | 53° |
| 2026-04-22 01:36 | -25.73105 | -57.87868 | 17203 ft | 409 kts | 43° |
| 2026-04-22 01:36 | -25.70942 | -57.85841 | 16784 ft | 399 kts | 33° |
| 2026-04-22 01:37 | -25.68658 | -57.84142 | 16370 ft | 392 kts | 31° |
| 2026-04-22 01:37 | -25.66399 | -57.82529 | 15960 ft | 386 kts | 31° |
| 2026-04-22 01:37 | -25.64158 | -57.80931 | 15553 ft | 380 kts | 31° |
| 2026-04-22 01:37 | -25.61951 | -57.79346 | 15153 ft | 375 kts | 31° |
| 2026-04-22 01:38 | -25.59795 | -57.77791 | 14765 ft | 369 kts | 31° |
| 2026-04-22 01:38 | -25.57664 | -57.76249 | 14377 ft | 364 kts | 31° |
| 2026-04-22 01:38 | -25.55560 | -57.74726 | 14000 ft | 358 kts | 31° |
| 2026-04-22 01:38 | -25.53486 | -57.73224 | 13626 ft | 353 kts | 31° |
| 2026-04-22 01:39 | -25.51434 | -57.71737 | 13249 ft | 347 kts | 31° |
| 2026-04-22 01:39 | -25.49445 | -57.70296 | 12897 ft | 342 kts | 31° |
| 2026-04-22 01:39 | -25.47449 | -57.68849 | 12500 ft | 338 kts | 31° |
| 2026-04-22 01:39 | -25.45502 | -57.67440 | 12068 ft | 336 kts | 31° |
| 2026-04-22 01:40 | -25.43558 | -57.66032 | 11726 ft | 330 kts | 31° |
| 2026-04-22 01:40 | -25.41647 | -57.64648 | 11429 ft | 323 kts | 30° |
| 2026-04-22 01:40 | -25.39648 | -57.63660 | 11121 ft | 312 kts | 8° |
| 2026-04-22 01:40 | -25.37528 | -57.63829 | 10779 ft | 303 kts | 339° |
| 2026-04-22 01:41 | -25.35766 | -57.65058 | 10444 ft | 297 kts | 320° |
| 2026-04-22 01:41 | -25.34224 | -57.66560 | 10131 ft | 293 kts | 321° |
| 2026-04-22 01:41 | -25.32620 | -57.67881 | 9834 ft | 288 kts | 327° |
| 2026-04-22 01:41 | -25.30888 | -57.68951 | 9521 ft | 283 kts | 335° |
| 2026-04-22 01:42 | -25.29069 | -57.69744 | 9209 ft | 279 kts | 342° |
| 2026-04-22 01:42 | -25.27187 | -57.70273 | 8821 ft | 273 kts | 349° |
| 2026-04-22 01:42 | -25.25304 | -57.70538 | 8251 ft | 274 kts | 356° |
| 2026-04-22 01:42 | -25.23411 | -57.70550 | 7716 ft | 271 kts | 2° |
| 2026-04-22 01:43 | -25.21552 | -57.70323 | 7145 ft | 269 kts | 9° |
| 2026-04-22 01:43 | -25.19738 | -57.69865 | 6516 ft | 267 kts | 15° |
| 2026-04-22 01:43 | -25.18001 | -57.69191 | 5994 ft | 266 kts | 21° |
| 2026-04-22 01:43 | -25.16332 | -57.68301 | 5604 ft | 262 kts | 27° |
| 2026-04-22 01:44 | -25.14790 | -57.67235 | 5261 ft | 259 kts | 34° |
| 2026-04-22 01:44 | -25.13392 | -57.66018 | 4929 ft | 258 kts | 40° |
| 2026-04-22 01:44 | -25.12113 | -57.64637 | 4599 ft | 257 kts | 46° |
| 2026-04-22 01:44 | -25.10978 | -57.63113 | 4267 ft | 256 kts | 52° |
| 2026-04-22 01:45 | -25.10005 | -57.61474 | 3939 ft | 255 kts | 58° |
| 2026-04-22 01:45 | -25.09210 | -57.59763 | 3742 ft | 243 kts | 64° |
| 2026-04-22 01:45 | -25.08619 | -57.58086 | 3714 ft | 229 kts | 69° |
| 2026-04-22 01:45 | -25.08195 | -57.56441 | 3663 ft | 220 kts | 74° |
| 2026-04-22 01:46 | -25.07907 | -57.54761 | 3560 ft | 221 kts | 79° |
| 2026-04-22 01:46 | -25.07764 | -57.53090 | 3445 ft | 218 kts | 85° |
| 2026-04-22 01:46 | -25.07784 | -57.51467 | 3317 ft | 207 kts | 95° |
| 2026-04-22 01:46 | -25.08466 | -57.50106 | 3018 ft | 207 kts | 140° |
| 2026-04-22 01:47 | -25.09735 | -57.49464 | 2896 ft | 192 kts | 160° |
| 2026-04-22 01:47 | -25.10999 | -57.49099 | 2652 ft | 185 kts | 172° |
| 2026-04-22 01:47 | -25.12279 | -57.49122 | 2272 ft | 183 kts | 186° |
| 2026-04-22 01:47 | -25.13499 | -57.49352 | 1993 ft | 170 kts | 191° |
| 2026-04-22 01:48 | -25.14602 | -57.49623 | 1768 ft | 158 kts | 192° |
| 2026-04-22 01:48 | -25.15677 | -57.49896 | 1581 ft | 156 kts | 192° |
| 2026-04-22 01:48 | -25.16738 | -57.50157 | 1394 ft | 155 kts | 192° |
| 2026-04-22 01:48 | -25.17788 | -57.50411 | 1201 ft | 154 kts | 192° |
| 2026-04-22 01:49 | -25.18828 | -57.50663 | 1003 ft | 152 kts | 192° |
| 2026-04-22 01:49 | -25.19863 | -57.50916 | 804 ft | 151 kts | 192° |
| 2026-04-22 01:49 | -25.20904 | -57.51143 | 605 ft | 150 kts | 192° |
| 2026-04-22 01:49 | -25.21915 | -57.51400 | 410 ft | 149 kts | 194° |
| 2026-04-22 01:50 | -25.22923 | -57.51669 | 262 ft | 147 kts | 187° |
| 2026-04-22 01:50 | -25.23797 | -57.51868 | 271 ft | 96 kts | 193° |
| 2026-04-22 01:50 | -25.24198 | -57.51965 | 277 ft | 27 kts | 184° |
| 2026-04-22 01:50 | -25.24275 | -57.51857 | 280 ft | 19 kts | 93° |
| 2026-04-22 01:51 | -25.24307 | -57.51731 | 285 ft | 15 kts | 110° |
| 2026-04-22 01:51 | -25.24310 | -57.51635 | 289 ft | 11 kts | 69° |
| 2026-04-22 01:51 | -25.24291 | -57.51568 | 293 ft | 7 kts | 83° |
| 2026-04-22 01:51 | -25.24294 | -57.51530 | 295 ft | 2 kts | 105° |
| 2026-04-22 01:52 | -25.24296 | -57.51524 | 295 ft | 0 kts | 104° |